Portada
METAR-TAF:

METAR-TAF

Aeroports :

Tientsin, Xina

latitud: 39-11N, longitud: 117-21E, altitud: 3 m

Observació

L'informe es va fer fa 45 minuts, a les 03:00 UTC
Vent 4 kt del Oest, variant entre Sud-Oest i Nord-Oest
Temperatura 4°C
Humitat 32%
Pressió 1027 hPa
Visibilitat: 9000 m

METAR: ZBTJ 060300Z 26002MPS 220V310 9000 NSC 04/M11 Q1027 NOSIG

Hora: 11:45 (03:45 UTC)

Pronòstic

L'informe es va fer fa 6 hores i 30 minuts, a les 21:15 UTC
Pronòstic vàlid del 06 a les 00 UTC al 06 a les 24 UTC
Vent 6 kt del Nord-Oest
Visibilitat: 5000 m
calitja

TAF: ZBTJ 052115Z 0600/0624 31003MPS 5000 HZ NSC TX05/0606Z TNM07/0622Z

Observacions i pronòstics meteorològics de més de 4000 aeroports (METAR i TAF).

Les estacions disponibles són els punts grocs i vermells al mapa.

Posi el ratolí al punt desitjat per veure el nom de l'estació.

Feu clic per veure les observacions i els pronòstics meteorològics.

Per canviar el mapa: feu clic els botons verds amb una creu de color negre per apropar; al botó verd amb un guió per allunyar la imatge; o en les fletxes verdes per a mapes adjacents.


METAR-TAF: